Latest Weather Observations for Lismore Airport

IDN60801

Issued at 6:23 pm EST Saturday 9 May 2026 (issued every 10 minutes, with the page automatically refreshed every 10 minutes)

About weather observations | Map of weather stations | Latest weather observations for NSW | Other Formats
Station Details ID: 058214 Name: LISMORE AIRPORT AWS Lat: -28.83 Lon: 153.26 Height: 9.21 m
Data from the previous 72 hours. | See also: Recent months at Lismore Airport
Date/Time
EST
Temp
°C
App
Temp
°C
Dew
Point
°C
Rel
Hum
%
Delta-T
°C
Wind Press
QNH
hPa
Press
MSL
hPa
Rain since
9am
mm
Dir  Spd
km/h
Gust
km/h
Spd
kts
Gust
kts
09/06:00pm 15.2 15.2 12.3 83 1.6 SSW 4 6 2 3 1023.5 1023.5 0.0
09/05:30pm 17.9 17.7 13.0 73 2.7 SSE 6 7 3 4 1023.1 1023.1 0.0
09/05:00pm 19.0 18.2 13.0 68 3.4 SE 9 15 5 8 1022.8 1022.8 0.0
09/04:30pm 20.5 18.9 12.7 61 4.4 SSE 13 20 7 11 1022.5 1022.5 0.0
09/04:00pm 21.9 20.6 9.8 46 6.5 SE 7 11 4 6 1022.2 1022.2 0.0
09/03:30pm 22.2 20.8 9.7 45 6.8 SSE 7 13 4 7 1022.1 1022.1 0.0
09/03:00pm 22.6 21.0 10.1 45 6.8 SSE 9 13 5 7 1022.0 1022.0 0.0
09/02:30pm 22.3 20.1 9.5 44 6.9 SSE 11 17 6 9 1022.0 1022.0 0.0
09/02:00pm 22.3 20.6 8.4 41 7.3 S 7 13 4 7 1022.1 1022.1 0.0
09/01:30pm 22.4 20.6 9.6 44 6.9 SSE 9 13 5 7 1022.1 1022.1 0.0
09/01:00pm 22.0 19.7 8.9 43 6.9 W 11 20 6 11 1022.3 1022.3 0.0
09/12:30pm 21.6 19.4 9.2 45 6.6 WSW 11 19 6 10 1022.6 1022.6 0.0
09/12:00pm 21.4 19.1 9.0 45 6.6 WSW 11 20 6 11 1023.0 1023.0 0.0
09/11:30am 20.5 17.8 8.8 47 6.2 SW 13 20 7 11 1023.5 1023.5 0.0
09/11:00am 19.7 16.9 8.4 48 5.8 SW 13 19 7 10 1023.8 1023.8 0.0
09/10:30am 19.3 16.6 8.9 51 5.4 S 13 19 7 10 1023.9 1023.9 0.0
09/10:00am 18.6 19.0 11.4 63 3.9 CALM 0 6 0 3 1024.1 1024.1 0.0
09/09:30am 16.1 15.4 12.1 77 2.2 N 7 11 4 6 1024.2 1024.2 0.0
09/09:00am 14.0 12.7 11.2 83 1.5 N 9 11 5 6 1024.1 1024.1 0.0
09/08:30am 11.7 9.6 9.9 89 0.9 NNW 11 13 6 7 1024.0 1024.0 0.0
09/08:00am 9.9 7.2 8.8 93 0.5 NNW 13 17 7 9 1023.6 1023.6 0.0
09/07:30am 8.8 5.5 8.2 96 0.3 NNW 15 17 8 9 1023.4 1023.4 0.0
09/07:00am 7.3 4.1 6.9 97 0.2 N 13 17 7 9 1023.2 1023.2 0.0
09/06:30am 6.5 3.2 6.2 98 0.1 N 13 15 7 8 1022.7 1022.7 0.0
09/06:00am 6.1 3.8 5.8 98 0.1 NNW 7 9 4 5 1022.3 1022.3 0.0
09/05:30am 6.2 4.1 5.8 97 0.2 NNW 6 7 3 4 1022.0 1022.0 0.0
09/05:00am 6.7 4.1 6.3 97 0.2 NNW 9 13 5 7 1021.7 1021.7 0.0
09/04:30am 7.0 3.7 6.6 97 0.2 N 13 17 7 9 1021.5 1021.5 0.0
09/04:00am 7.0 3.7 6.6 97 0.2 N 13 15 7 8 1021.4 1021.4 0.0
09/03:30am 7.1 4.2 6.7 97 0.2 N 11 13 6 7 1021.2 1021.2 0.0
09/03:00am 7.3 4.1 6.9 97 0.2 N 13 17 7 9 1021.2 1021.2 0.0
09/02:30am 7.4 4.2 7.0 97 0.2 N 13 19 7 10 1021.2 1021.2 0.0
09/02:00am 7.4 4.2 7.0 97 0.2 NNW 13 15 7 8 1021.1 1021.1 0.0
09/01:30am 7.3 4.5 6.9 97 0.2 N 11 13 6 7 1021.1 1021.1 0.0
09/01:00am 7.4 5.0 7.0 97 0.2 NNW 9 13 5 7 1021.2 1021.2 0.0
09/12:30am 7.2 5.3 6.8 97 0.2 NNW 6 7 3 4 1021.0 1021.0 0.0
09/12:00am 7.5 4.7 7.1 97 0.2 N 11 13 6 7 1020.8 1020.8 0.0
 
Date/Time
EST
Temp
°C
App
Temp
°C
Dew
Point
°C
Rel
Hum
%
Delta-T
°C
Wind Press
QNH
hPa
Press
MSL
hPa
Rain since
9am
mm
Dir  Spd
km/h
Gust
km/h
Spd
kts
Gust
kts
08/11:30pm 7.6 5.2 7.2 97 0.2 N 9 13 5 7 1020.8 1020.8 0.0
08/11:00pm 8.1 5.5 7.7 97 0.2 N 11 13 6 7 1020.8 1020.8 0.0
08/10:30pm 8.1 5.4 7.3 95 0.4 N 11 15 6 8 1020.7 1020.7 0.0
08/10:00pm 9.3 7.2 8.1 92 0.6 NNE 9 11 5 6 1020.6 1020.6 0.0
08/09:30pm 8.9 6.7 7.8 93 0.5 N 9 13 5 7 1020.3 1020.3 0.0
08/09:00pm 9.1 5.8 8.0 93 0.5 N 15 19 8 10 1019.7 1019.7 0.0
08/08:30pm 8.5 6.2 7.3 92 0.6 N 9 13 5 7 1019.4 1019.4 0.0
08/08:00pm 9.9 8.5 7.2 83 1.3 WNW 4 9 2 5 1019.3 1019.3 0.0
08/07:30pm 11.1 10.2 7.6 79 1.7 WNW 2 6 1 3 1019.0 1019.0 0.0
08/07:00pm 11.5 9.7 7.0 74 2.1 WNW 6 7 3 4 1018.5 1018.5 0.0
08/06:30pm 11.9 10.0 7.6 75 2.1 NW 7 7 4 4 1018.2 1018.2 0.0
08/06:00pm 14.2 11.9 7.3 63 3.4 NNE 9 13 5 7 1017.6 1017.6 0.0
08/05:30pm 13.7 13.1 7.2 65 3.2 CALM 0 0 0 0 1017.1 1017.1 0.0
08/05:00pm 16.8 15.4 5.4 47 5.5 NE 2 7 1 4 1016.8 1016.8 0.0
08/04:30pm 19.1 16.6 4.8 39 6.9 NE 7 11 4 6 1016.5 1016.5 0.0
08/04:00pm 19.9 16.6 4.4 36 7.5 NNE 11 17 6 9 1016.3 1016.3 0.0
08/03:30pm 20.5 17.1 1.9 29 8.6 N 9 13 5 7 1016.2 1016.2 0.0
08/03:00pm 20.5 17.2 2.3 30 8.4 N 9 15 5 8 1016.4 1016.4 0.0
08/02:30pm 20.3 16.1 1.7 29 8.5 NNW 13 17 7 9 1016.6 1016.6 0.0
08/02:00pm 20.4 16.8 2.7 31 8.3 NNW 11 17 6 9 1017.0 1017.0 0.0
08/01:30pm 19.9 16.3 0.9 28 8.5 N 9 19 5 10 1017.2 1017.2 0.0
08/01:00pm 19.8 15.2 1.7 30 8.2 NW 15 22 8 12 1017.7 1017.7 0.0
08/12:30pm 19.1 14.7 0.2 28 8.3 NNW 13 19 7 10 1018.3 1018.3 0.0
08/12:00pm 18.3 14.0 -1.5 26 8.3 WNW 11 19 6 10 1018.9 1018.9 0.0
08/11:30am 17.6 13.6 -2.1 26 8.2 W 9 15 5 8 1019.6 1019.6 0.0
08/11:00am 17.4 14.0 -0.8 29 7.7 SW 7 11 4 6 1020.1 1020.1 0.0
08/10:30am 16.7 12.4 -1.9 28 7.7 WSW 11 17 6 9 1020.6 1020.6 0.0
08/10:00am 16.2 12.3 -1.8 29 7.4 W 9 17 5 9 1020.8 1020.8 0.0
08/09:30am 15.8 12.7 1.5 38 6.3 NW 7 13 4 7 1020.9 1020.9 0.0
08/09:00am 14.3 11.0 2.5 45 5.2 NNW 9 11 5 6 1020.8 1020.8 0.0
08/08:30am 12.4 9.7 5.6 63 3.2 N 9 13 5 7 1021.0 1021.0 0.0
08/08:00am 10.2 7.2 5.8 74 2.0 N 11 13 6 7 1021.0 1021.0 0.0
08/07:30am 8.8 5.6 5.2 78 1.6 NNW 11 15 6 8 1020.8 1020.8 0.0
08/07:00am 6.8 4.2 4.1 83 1.2 N 7 9 4 5 1020.6 1020.6 0.0
08/06:30am 5.8 3.4 2.3 78 1.4 NNW 4 7 2 4 1020.5 1020.5 0.0
08/06:00am 7.1 4.6 1.8 69 2.1 ENE 4 6 2 3 1020.1 1020.1 0.0
08/05:30am 9.7 5.6 -0.5 49 4.0 SSW 11 13 6 7 1019.6 1019.6 0.0
08/05:00am 11.0 6.7 -1.7 41 4.9 SSW 11 15 6 8 1019.4 1019.4 0.0
08/04:30am 10.4 6.0 0.2 49 4.1 WSW 13 17 7 9 1019.0 1019.0 0.0
08/04:00am 6.6 3.8 2.9 77 1.5 S 7 13 4 7 1018.9 1018.9 0.0
08/03:30am 7.1 4.9 3.2 76 1.6 SSW 4 7 2 4 1018.8 1018.8 0.0
08/03:00am 8.3 6.3 2.1 65 2.6 SE 2 6 1 3 1018.8 1018.8 0.0
08/02:30am 9.4 6.4 1.8 59 3.2 S 7 13 4 7 1018.7 1018.7 0.0
08/02:00am 10.7 6.9 1.5 53 3.8 S 11 15 6 8 1018.6 1018.6 0.0
08/01:30am 11.6 7.6 0.7 47 4.5 SSW 11 15 6 8 1018.5 1018.5 0.0
08/01:00am 12.9 8.7 1.9 47 4.7 SW 13 17 7 9 1018.6 1018.6 0.0
08/12:30am 13.2 9.3 3.6 52 4.3 SW 13 20 7 11 1018.4 1018.4 0.0
08/12:00am 14.3 9.9 4.6 52 4.5 SW 17 22 9 12 1018.3 1018.3 0.0
 
Date/Time
EST
Temp
°C
App
Temp
°C
Dew
Point
°C
Rel
Hum
%
Delta-T
°C
Wind Press
QNH
hPa
Press
MSL
hPa
Rain since
9am
mm
Dir  Spd
km/h
Gust
km/h
Spd
kts
Gust
kts
07/11:30pm 14.8 11.2 5.1 52 4.6 SSW 13 19 7 10 1018.3 1018.3 0.0
07/11:00pm 14.2 10.9 6.6 60 3.7 SW 13 19 7 10 1018.1 1018.1 0.0
07/10:30pm 16.7 12.2 5.9 49 5.2 W 19 24 10 13 1017.5 1017.5 0.0
07/10:00pm 17.1 12.5 5.7 47 5.5 W 19 26 10 14 1017.2 1017.2 0.0
07/09:30pm 17.8 12.5 5.1 43 6.1 W 22 32 12 17 1017.1 1017.1 0.0
07/09:00pm 18.4 12.7 4.9 41 6.5 W 24 35 13 19 1016.6 1016.6 0.0
07/08:30pm 18.4 13.9 4.2 39 6.7 WNW 17 24 9 13 1016.0 1016.0 0.0
07/08:00pm 19.2 13.4 4.2 37 7.2 WNW 24 32 13 17 1015.4 1015.4 0.0
07/07:30pm 17.9 13.3 5.8 45 5.9 NW 19 26 10 14 1014.9 1014.9 0.0
07/07:00pm 16.4 12.9 8.6 60 4.0 NNW 17 20 9 11 1014.5 1014.5 0.0
07/06:30pm 18.0 15.3 7.4 50 5.3 N 11 19 6 10 1014.1 1014.1 0.0
07/06:00pm 20.6 16.0 5.4 37 7.5 NW 19 24 10 13 1013.5 1013.5 0.0
07/05:30pm 19.5 16.2 8.2 48 5.8 NW 15 20 8 11 1013.4 1013.4 0.0
07/05:00pm 20.3 16.8 8.6 47 6.1 NW 17 22 9 12 1012.9 1012.9 0.0
07/04:30pm 21.8 19.2 10.6 49 6.1 NNW 15 19 8 10 1012.6 1012.6 0.0
07/04:00pm 23.9 20.6 9.5 40 7.8 WNW 17 22 9 12 1012.3 1012.3 0.0
07/03:30pm 24.5 21.1 9.3 38 8.3 NW 17 22 9 12 1012.1 1012.1 0.0
07/03:00pm 24.6 21.3 10.8 42 7.7 NNW 19 24 10 13 1012.1 1012.1 0.0
07/02:30pm 25.7 22.3 11.1 40 8.2 NW 20 30 11 16 1012.3 1012.3 0.0
07/02:00pm 25.7 21.2 11.5 41 8.1 NW 26 33 14 18 1012.2 1012.2 0.0
07/01:30pm 26.2 22.0 11.2 39 8.5 NW 24 32 13 17 1012.4 1012.4 0.0
07/01:00pm 26.0 22.9 12.1 42 8.0 NW 20 32 11 17 1012.8 1012.8 0.0
07/12:30pm 25.6 21.8 13.5 47 7.1 NW 26 37 14 20 1013.0 1013.0 0.0
07/12:00pm 25.1 20.6 13.9 49 6.6 WNW 30 41 16 22 1013.7 1013.7 0.0
07/11:30am 25.0 23.0 15.6 56 5.7 NW 20 35 11 19 1013.8 1013.8 0.0
07/11:00am 24.6 22.7 16.8 62 4.8 WNW 22 35 12 19 1014.3 1014.3 0.0
07/10:30am 24.2 22.5 17.2 65 4.3 NW 22 33 12 18 1014.9 1014.9 0.0
07/10:00am 23.3 21.9 18.0 72 3.3 NW 22 30 12 16 1015.4 1015.4 0.0
07/09:30am 22.5 23.4 18.5 78 2.5 N 11 17 6 9 1015.8 1015.8 0.0
07/09:00am 20.9 22.7 18.8 88 1.3 NNW 7 11 4 6 1015.9 1015.9 0.2
07/08:34am 18.5 20.1 18.3 99 0.1 N 7 9 4 5 1016.1 1016.1 0.2
07/08:30am 18.6 20.3 18.4 99 0.1 N 7 9 4 5 1016.1 1016.1 0.2
07/08:27am 18.5 20.1 18.3 99 0.1 N 7 9 4 5 1016.1 1016.1 0.2
07/08:06am 17.8 18.7 17.6 99 0.1 N 9 11 5 6 1016.2 1016.2 0.2
07/08:05am 17.6 18.4 17.4 99 0.1 N 9 11 5 6 1016.1 1016.1 0.2
07/08:00am 17.2 17.9 17.0 99 0.1 N 9 11 5 6 1016.0 1016.0 0.2
07/07:49am 17.1 17.7 16.9 99 0.1 NNW 9 13 5 7 1016.1 1016.1 0.2
07/07:30am 16.5 17.3 16.3 99 0.1 N 7 11 4 6 1015.9 1015.9 0.2
07/07:00am 16.2 16.9 16.0 99 0.1 NNW 7 13 4 7 1015.9 1015.9 0.2
07/06:30am 15.9 17.0 15.7 99 0.1 NNW 4 6 2 3 1015.5 1015.5 0.2
07/06:00am 15.6 15.7 15.4 99 0.1 NNW 9 11 5 6 1015.2 1015.2 0.2
07/05:30am 15.9 16.6 15.7 99 0.1 N 6 7 3 4 1015.3 1015.3 0.2
07/05:00am 16.3 17.2 16.1 99 0.1 NNW 6 7 3 4 1015.0 1015.0 0.2
07/04:53am 16.4 17.3 16.2 99 0.1 NNW 6 9 3 5 1015.0 1015.0 0.2
07/04:41am 16.3 16.6 16.1 99 0.1 N 9 9 5 5 1015.1 1015.1 0.2
07/04:30am 16.3 17.2 16.1 99 0.1 N 6 9 3 5 1015.1 1015.1 0.2
07/04:04am 16.3 17.0 16.1 99 0.1 WNW 7 9 4 5 1015.2 1015.2 0.2
07/04:00am 16.3 17.0 16.1 99 0.1 WNW 7 9 4 5 1015.2 1015.2 0.2
07/03:34am 16.6 17.6 16.4 99 0.1 NNW 6 7 3 4 1015.5 1015.5 0.2
07/03:30am 16.5 17.5 16.3 99 0.1 N 6 9 3 5 1015.4 1015.4 0.0
07/03:09am 16.4 17.3 16.2 99 0.1 NNW 6 9 3 5 1015.4 1015.4 0.0
07/03:03am 16.5 16.9 16.3 99 0.1 NNW 9 9 5 5 1015.5 1015.5 0.0
07/03:00am 16.5 16.9 16.3 99 0.1 NNW 9 11 5 6 1015.6 1015.6 0.0
07/02:47am 16.4 16.8 16.2 99 0.1 N 9 11 5 6 1015.6 1015.6 0.0
07/02:36am 16.5 16.9 16.3 99 0.1 N 9 11 5 6 1015.8 1015.8 0.0
07/02:30am 16.5 16.9 16.3 99 0.1 N 9 11 5 6 1015.8 1015.8 0.0
07/02:08am 16.6 17.0 16.4 99 0.1 N 9 11 5 6 1016.0 1016.0 0.0
07/02:00am 16.7 16.8 16.5 99 0.1 NNW 11 13 6 7 1016.1 1016.1 0.0
07/01:38am 16.7 16.8 16.5 99 0.1 N 11 13 6 7 1016.4 1016.4 0.0
07/01:30am 16.7 17.2 16.5 99 0.1 N 9 11 5 6 1016.4 1016.4 0.0
07/01:26am 16.7 17.2 16.5 99 0.1 N 9 11 5 6 1016.4 1016.4 0.0
07/01:19am 16.8 17.3 16.6 99 0.1 N 9 13 5 7 1016.4 1016.4 0.0
07/01:00am 16.5 17.2 16.2 98 0.2 N 7 11 4 6 1016.6 1016.6 0.0
07/12:50am 16.5 16.9 16.2 98 0.2 NNW 9 13 5 7 1016.6 1016.6 0.0
07/12:44am 16.6 17.0 16.3 98 0.2 NNW 9 13 5 7 1016.6 1016.6 0.0
07/12:40am 16.6 17.0 16.3 98 0.2 NNW 9 13 5 7 1016.6 1016.6 0.0
07/12:30am 16.3 17.0 16.0 98 0.2 N 7 9 4 5 1016.8 1016.8 0.0
07/12:00am 16.5 16.9 16.2 98 0.2 NNE 9 9 5 5 1016.9 1016.9 0.0
 
Date/Time
EST
Temp
°C
App
Temp
°C
Dew
Point
°C
Rel
Hum
%
Delta-T
°C
Wind Press
QNH
hPa
Press
MSL
hPa
Rain since
9am
mm
Dir  Spd
km/h
Gust
km/h
Spd
kts
Gust
kts
06/11:30pm 17.2 17.5 16.9 98 0.2 N 11 15 6 8 1017.1 1017.1 0.0
06/11:00pm 17.2 17.8 16.9 98 0.2 NNW 9 11 5 6 1017.4 1017.4 0.0
06/10:30pm 16.9 18.4 16.6 98 0.2 NW 4 6 2 3 1017.5 1017.5 0.0
06/10:00pm 16.9 17.9 16.4 97 0.3 NNE 6 9 3 5 1017.5 1017.5 0.0
06/09:30pm 17.3 17.9 16.8 97 0.3 NNW 9 11 5 6 1018.0 1018.0 0.0
06/09:00pm 17.4 18.0 16.9 97 0.3 NNW 9 11 5 6 1018.0 1018.0 0.0
06/08:30pm 17.8 19.6 17.3 97 0.3 NNW 4 7 2 4 1018.3 1018.3 0.0
06/08:04pm 17.8 19.0 17.3 97 0.3 NNW 7 11 4 6 1018.3 1018.3 0.0
06/08:00pm 17.7 18.8 17.2 97 0.3 NNW 7 9 4 5 1018.2 1018.2 0.0
06/07:31pm 17.5 18.8 17.0 97 0.3 NNW 6 11 3 6 1018.1 1018.1 0.0
06/07:30pm 17.5 19.1 17.0 97 0.3 NNW 4 11 2 6 1018.1 1018.1 0.0
06/07:26pm 17.4 19.8 16.9 97 0.3 CALM 0 7 0 4 1018.0 1018.0 0.0
06/07:00pm 17.5 19.9 17.0 97 0.3 CALM 0 0 0 0 1017.7 1017.7 0.0
06/06:49pm 17.5 19.9 17.0 97 0.3 CALM 0 0 0 0 1017.7 1017.7 0.0
06/06:30pm 17.5 18.7 16.9 96 0.4 NNW 6 9 3 5 1017.5 1017.5 0.0

Other formats

Comma delimited format used in spreadsheet applications
http://www.bom.gov.au/fwo/IDN60801/IDN60801.94572.axf

JavaScript Object Notation format (JSON) in row-major order
http://www.bom.gov.au/fwo/IDN60801/IDN60801.94572.json

Data quality

Most of these data are generated automatically and are frequently updated. Quality checks on data are not normally performed. It is possible for incorrect values to appear. Refer to information at About Latest Weather Observations and please check the disclaimer before using these data.